sensor_id;sensor_type;location;lat;lon;timestamp;temperature;humidity
63371;DHT22;49504;48.336;14.472;2023-07-13T00:00:26;27.50;58.40
63371;DHT22;49504;48.336;14.472;2023-07-13T00:03:47;27.50;58.40
63371;DHT22;49504;48.336;14.472;2023-07-13T00:07:09;27.40;58.30
63371;DHT22;49504;48.336;14.472;2023-07-13T00:10:31;27.50;58.40
63371;DHT22;49504;48.336;14.472;2023-07-13T00:13:52;27.50;58.40
63371;DHT22;49504;48.336;14.472;2023-07-13T00:21:33;27.40;57.80
63371;DHT22;49504;48.336;14.472;2023-07-13T00:24:54;27.40;58.40
63371;DHT22;49504;48.336;14.472;2023-07-13T00:29:30;27.40;57.80
63371;DHT22;49504;48.336;14.472;2023-07-13T00:32:51;27.40;58.40
63371;DHT22;49504;48.336;14.472;2023-07-13T00:36:12;27.40;58.40
63371;DHT22;49504;48.336;14.472;2023-07-13T00:39:34;27.40;58.40
63371;DHT22;49504;48.336;14.472;2023-07-13T00:42:58;27.40;58.40
63371;DHT22;49504;48.336;14.472;2023-07-13T00:46:24;27.40;58.40
63371;DHT22;49504;48.336;14.472;2023-07-13T00:49:46;27.40;58.40
63371;DHT22;49504;48.336;14.472;2023-07-13T00:55:33;27.40;57.80
63371;DHT22;49504;48.336;14.472;2023-07-13T00:58:55;27.40;58.40
63371;DHT22;49504;48.336;14.472;2023-07-13T01:02:18;27.40;58.40
63371;DHT22;49504;48.336;14.472;2023-07-13T01:05:40;27.40;58.40
63371;DHT22;49504;48.336;14.472;2023-07-13T01:09:01;27.40;58.40
63371;DHT22;49504;48.336;14.472;2023-07-13T01:13:53;27.40;57.80
63371;DHT22;49504;48.336;14.472;2023-07-13T01:17:14;27.40;58.40
63371;DHT22;49504;48.336;14.472;2023-07-13T01:20:37;27.40;58.40
63371;DHT22;49504;48.336;14.472;2023-07-13T01:24:00;27.40;58.40
63371;DHT22;49504;48.336;14.472;2023-07-13T01:27:24;27.40;58.40
63371;DHT22;49504;48.336;14.472;2023-07-13T01:30:46;27.40;58.40
63371;DHT22;49504;48.336;14.472;2023-07-13T01:34:08;27.40;58.40
63371;DHT22;49504;48.336;14.472;2023-07-13T01:37:29;27.40;58.40
63371;DHT22;49504;48.336;14.472;2023-07-13T01:40:52;27.40;58.40
63371;DHT22;49504;48.336;14.472;2023-07-13T01:44:13;27.40;58.50
63371;DHT22;49504;48.336;14.472;2023-07-13T01:47:34;27.40;58.50
63371;DHT22;49504;48.336;14.472;2023-07-13T01:50:55;27.40;58.40
63371;DHT22;49504;48.336;14.472;2023-07-13T01:54:17;27.40;58.40
63371;DHT22;49504;48.336;14.472;2023-07-13T01:57:39;27.40;58.40
63371;DHT22;49504;48.336;14.472;2023-07-13T02:01:00;27.40;58.40
63371;DHT22;49504;48.336;14.472;2023-07-13T02:04:22;27.40;58.40
63371;DHT22;49504;48.336;14.472;2023-07-13T02:10:50;27.30;57.80
63371;DHT22;49504;48.336;14.472;2023-07-13T02:15:12;27.40;57.90
63371;DHT22;49504;48.336;14.472;2023-07-13T02:18:33;27.40;58.50
63371;DHT22;49504;48.336;14.472;2023-07-13T02:21:54;27.30;58.30
63371;DHT22;49504;48.336;14.472;2023-07-13T02:25:15;27.30;58.30
63371;DHT22;49504;48.336;14.472;2023-07-13T02:28:36;27.40;58.40
63371;DHT22;49504;48.336;14.472;2023-07-13T02:31:59;27.40;58.40
63371;DHT22;49504;48.336;14.472;2023-07-13T02:35:20;27.40;58.40
63371;DHT22;49504;48.336;14.472;2023-07-13T02:38:41;27.30;58.40
63371;DHT22;49504;48.336;14.472;2023-07-13T02:42:03;27.40;58.50
63371;DHT22;49504;48.336;14.472;2023-07-13T02:45:25;27.40;58.50
63371;DHT22;49504;48.336;14.472;2023-07-13T02:51:07;27.30;57.80
63371;DHT22;49504;48.336;14.472;2023-07-13T02:54:28;27.40;58.40
63371;DHT22;49504;48.336;14.472;2023-07-13T02:57:49;27.30;58.30
63371;DHT22;49504;48.336;14.472;2023-07-13T03:01:11;27.40;58.40
63371;DHT22;49504;48.336;14.472;2023-07-13T03:04:35;27.30;58.30
63371;DHT22;49504;48.336;14.472;2023-07-13T03:07:58;27.30;58.30
63371;DHT22;49504;48.336;14.472;2023-07-13T03:11:20;27.30;58.30
63371;DHT22;49504;48.336;14.472;2023-07-13T03:15:02;27.40;58.40
63371;DHT22;49504;48.336;14.472;2023-07-13T03:18:23;27.30;58.30
63371;DHT22;49504;48.336;14.472;2023-07-13T03:21:47;27.30;58.30
63371;DHT22;49504;48.336;14.472;2023-07-13T03:25:10;27.30;58.30
63371;DHT22;49504;48.336;14.472;2023-07-13T03:28:31;27.30;58.30
63371;DHT22;49504;48.336;14.472;2023-07-13T03:31:52;27.30;58.30
63371;DHT22;49504;48.336;14.472;2023-07-13T03:35:14;27.30;58.30
63371;DHT22;49504;48.336;14.472;2023-07-13T03:38:35;27.30;58.30
63371;DHT22;49504;48.336;14.472;2023-07-13T03:41:59;27.30;58.30
63371;DHT22;49504;48.336;14.472;2023-07-13T03:45:21;27.30;58.30
63371;DHT22;49504;48.336;14.472;2023-07-13T03:48:44;27.30;58.10
63371;DHT22;49504;48.336;14.472;2023-07-13T03:52:07;27.30;57.90
63371;DHT22;49504;48.336;14.472;2023-07-13T03:55:29;27.30;57.80
63371;DHT22;49504;48.336;14.472;2023-07-13T03:58:52;27.30;57.80
63371;DHT22;49504;48.336;14.472;2023-07-13T04:02:15;27.30;57.80
63371;DHT22;49504;48.336;14.472;2023-07-13T04:05:36;27.30;57.80
63371;DHT22;49504;48.336;14.472;2023-07-13T04:08:59;27.30;58.40
63371;DHT22;49504;48.336;14.472;2023-07-13T04:12:22;27.30;57.70
63371;DHT22;49504;48.336;14.472;2023-07-13T04:15:45;27.30;57.90
63371;DHT22;49504;48.336;14.472;2023-07-13T04:19:08;27.30;57.90
63371;DHT22;49504;48.336;14.472;2023-07-13T04:22:29;27.30;57.90
63371;DHT22;49504;48.336;14.472;2023-07-13T04:25:52;27.30;58.10
63371;DHT22;49504;48.336;14.472;2023-07-13T04:29:14;27.30;58.20
63371;DHT22;49504;48.336;14.472;2023-07-13T04:32:36;27.30;58.20
63371;DHT22;49504;48.336;14.472;2023-07-13T04:35:57;27.30;58.20
63371;DHT22;49504;48.336;14.472;2023-07-13T04:39:18;27.30;58.20
63371;DHT22;49504;48.336;14.472;2023-07-13T04:42:40;27.30;58.20
63371;DHT22;49504;48.336;14.472;2023-07-13T04:46:04;27.30;58.20
63371;DHT22;49504;48.336;14.472;2023-07-13T04:49:27;27.30;58.30
63371;DHT22;49504;48.336;14.472;2023-07-13T04:52:48;27.30;58.40
63371;DHT22;49504;48.336;14.472;2023-07-13T04:56:13;27.30;58.30
63371;DHT22;49504;48.336;14.472;2023-07-13T04:59:34;27.30;58.30
63371;DHT22;49504;48.336;14.472;2023-07-13T05:02:56;27.30;58.30
63371;DHT22;49504;48.336;14.472;2023-07-13T05:06:19;27.30;58.30
63371;DHT22;49504;48.336;14.472;2023-07-13T05:09:40;27.30;58.30
63371;DHT22;49504;48.336;14.472;2023-07-13T05:13:02;27.30;58.30
63371;DHT22;49504;48.336;14.472;2023-07-13T05:16:26;27.30;58.30
63371;DHT22;49504;48.336;14.472;2023-07-13T05:19:47;27.30;59.00
63371;DHT22;49504;48.336;14.472;2023-07-13T05:23:10;27.30;58.40
63371;DHT22;49504;48.336;14.472;2023-07-13T05:26:31;27.30;58.40
63371;DHT22;49504;48.336;14.472;2023-07-13T05:29:52;27.30;58.30
63371;DHT22;49504;48.336;14.472;2023-07-13T05:33:13;27.30;58.30
63371;DHT22;49504;48.336;14.472;2023-07-13T05:36:34;27.30;58.30
63371;DHT22;49504;48.336;14.472;2023-07-13T05:39:57;27.30;58.30
63371;DHT22;49504;48.336;14.472;2023-07-13T05:43:18;27.30;58.30
63371;DHT22;49504;48.336;14.472;2023-07-13T05:46:39;27.30;58.30
63371;DHT22;49504;48.336;14.472;2023-07-13T05:50:00;27.30;58.30
63371;DHT22;49504;48.336;14.472;2023-07-13T05:53:21;27.30;58.30
63371;DHT22;49504;48.336;14.472;2023-07-13T05:56:44;27.30;58.30
63371;DHT22;49504;48.336;14.472;2023-07-13T06:00:06;27.30;58.30
63371;DHT22;49504;48.336;14.472;2023-07-13T06:03:33;27.30;58.30
63371;DHT22;49504;48.336;14.472;2023-07-13T06:06:54;27.30;58.30
63371;DHT22;49504;48.336;14.472;2023-07-13T06:10:15;27.30;58.30
63371;DHT22;49504;48.336;14.472;2023-07-13T06:13:38;27.30;58.30
63371;DHT22;49504;48.336;14.472;2023-07-13T06:16:59;27.30;58.30
63371;DHT22;49504;48.336;14.472;2023-07-13T06:20:20;27.30;58.30
63371;DHT22;49504;48.336;14.472;2023-07-13T06:23:41;27.30;58.10
63371;DHT22;49504;48.336;14.472;2023-07-13T06:27:03;27.20;57.80
63371;DHT22;49504;48.336;14.472;2023-07-13T06:30:26;27.20;57.60
63371;DHT22;49504;48.336;14.472;2023-07-13T06:33:47;27.20;57.50
63371;DHT22;49504;48.336;14.472;2023-07-13T06:37:09;27.30;57.50
63371;DHT22;49504;48.336;14.472;2023-07-13T06:40:30;27.20;57.40
63371;DHT22;49504;48.336;14.472;2023-07-13T06:43:51;27.20;57.40
63371;DHT22;49504;48.336;14.472;2023-07-13T06:47:14;27.20;57.20
63371;DHT22;49504;48.336;14.472;2023-07-13T06:50:35;27.20;57.10
63371;DHT22;49504;48.336;14.472;2023-07-13T06:53:56;27.20;57.20
63371;DHT22;49504;48.336;14.472;2023-07-13T06:57:17;27.10;57.20
63371;DHT22;49504;48.336;14.472;2023-07-13T07:00:39;27.20;57.40
63371;DHT22;49504;48.336;14.472;2023-07-13T07:04:03;27.10;57.20
63371;DHT22;49504;48.336;14.472;2023-07-13T07:07:24;27.10;57.30
63371;DHT22;49504;48.336;14.472;2023-07-13T07:10:46;27.10;57.40
63371;DHT22;49504;48.336;14.472;2023-07-13T07:14:07;27.10;57.50
63371;DHT22;49504;48.336;14.472;2023-07-13T07:17:29;27.10;57.60
63371;DHT22;49504;48.336;14.472;2023-07-13T07:20:52;27.10;57.70
63371;DHT22;49504;48.336;14.472;2023-07-13T07:24:13;27.10;57.70
63371;DHT22;49504;48.336;14.472;2023-07-13T07:27:34;27.10;57.80
63371;DHT22;49504;48.336;14.472;2023-07-13T07:30:56;27.10;57.80
63371;DHT22;49504;48.336;14.472;2023-07-13T07:34:18;27.10;57.80
63371;DHT22;49504;48.336;14.472;2023-07-13T07:37:41;27.10;57.80
63371;DHT22;49504;48.336;14.472;2023-07-13T07:41:03;27.10;57.80
63371;DHT22;49504;48.336;14.472;2023-07-13T07:44:24;27.10;57.90
63371;DHT22;49504;48.336;14.472;2023-07-13T07:47:46;27.10;58.00
63371;DHT22;49504;48.336;14.472;2023-07-13T07:51:07;27.10;58.00
63371;DHT22;49504;48.336;14.472;2023-07-13T07:54:30;27.10;58.10
63371;DHT22;49504;48.336;14.472;2023-07-13T07:57:52;27.10;58.20
63371;DHT22;49504;48.336;14.472;2023-07-13T08:01:13;27.10;58.30
63371;DHT22;49504;48.336;14.472;2023-07-13T08:04:34;27.10;58.30
63371;DHT22;49504;48.336;14.472;2023-07-13T08:07:56;27.10;58.40
63371;DHT22;49504;48.336;14.472;2023-07-13T08:11:21;27.10;58.60
63371;DHT22;49504;48.336;14.472;2023-07-13T08:14:43;27.10;58.50
63371;DHT22;49504;48.336;14.472;2023-07-13T08:18:04;27.10;58.50
63371;DHT22;49504;48.336;14.472;2023-07-13T08:21:25;27.10;58.50
63371;DHT22;49504;48.336;14.472;2023-07-13T08:24:47;27.10;58.50
63371;DHT22;49504;48.336;14.472;2023-07-13T08:28:10;27.10;58.50
63371;DHT22;49504;48.336;14.472;2023-07-13T08:31:31;27.10;58.50
63371;DHT22;49504;48.336;14.472;2023-07-13T08:34:52;27.10;58.50
63371;DHT22;49504;48.336;14.472;2023-07-13T08:38:14;27.10;58.50
63371;DHT22;49504;48.336;14.472;2023-07-13T08:41:35;27.10;58.60
63371;DHT22;49504;48.336;14.472;2023-07-13T08:45:14;27.10;58.40
63371;DHT22;49504;48.336;14.472;2023-07-13T08:48:43;27.20;58.40
63371;DHT22;49504;48.336;14.472;2023-07-13T08:52:20;27.20;58.40
63371;DHT22;49504;48.336;14.472;2023-07-13T08:55:45;27.20;58.40
63371;DHT22;49504;48.336;14.472;2023-07-13T08:59:13;27.20;58.50
63371;DHT22;49504;48.336;14.472;2023-07-13T09:02:42;27.20;58.40
63371;DHT22;49504;48.336;14.472;2023-07-13T09:06:08;27.20;58.50
63371;DHT22;49504;48.336;14.472;2023-07-13T09:09:39;27.20;58.60
63371;DHT22;49504;48.336;14.472;2023-07-13T09:13:16;27.20;58.60
63371;DHT22;49504;48.336;14.472;2023-07-13T09:16:44;27.20;58.60
63371;DHT22;49504;48.336;14.472;2023-07-13T09:20:25;27.20;58.70
63371;DHT22;49504;48.336;14.472;2023-07-13T09:23:52;27.20;58.60
63371;DHT22;49504;48.336;14.472;2023-07-13T09:27:17;27.30;58.70
63371;DHT22;49504;48.336;14.472;2023-07-13T09:30:46;27.30;58.70
63371;DHT22;49504;48.336;14.472;2023-07-13T09:34:12;27.30;58.70
63371;DHT22;49504;48.336;14.472;2023-07-13T09:37:35;27.30;58.80
63371;DHT22;49504;48.336;14.472;2023-07-13T09:41:01;27.30;58.80
63371;DHT22;49504;48.336;14.472;2023-07-13T09:44:30;27.30;58.70
63371;DHT22;49504;48.336;14.472;2023-07-13T09:47:59;27.30;58.60
63371;DHT22;49504;48.336;14.472;2023-07-13T09:51:20;27.30;58.50
63371;DHT22;49504;48.336;14.472;2023-07-13T09:54:48;27.20;58.50
63371;DHT22;49504;48.336;14.472;2023-07-13T09:58:13;27.30;58.60
63371;DHT22;49504;48.336;14.472;2023-07-13T10:01:38;27.30;59.30
63371;DHT22;49504;48.336;14.472;2023-07-13T10:05:01;27.30;58.70
63371;DHT22;49504;48.336;14.472;2023-07-13T10:08:26;27.30;58.80
63371;DHT22;49504;48.336;14.472;2023-07-13T10:11:50;27.30;58.80
63371;DHT22;49504;48.336;14.472;2023-07-13T10:15:16;27.30;58.80
63371;DHT22;49504;48.336;14.472;2023-07-13T10:18:44;27.30;58.90
63371;DHT22;49504;48.336;14.472;2023-07-13T10:22:17;27.30;58.70
63371;DHT22;49504;48.336;14.472;2023-07-13T10:28:54;27.30;58.10
63371;DHT22;49504;48.336;14.472;2023-07-13T10:32:24;27.30;58.20
63371;DHT22;49504;48.336;14.472;2023-07-13T10:35:45;27.30;58.70
63371;DHT22;49504;48.336;14.472;2023-07-13T10:39:07;27.30;58.70
63371;DHT22;49504;48.336;14.472;2023-07-13T10:42:39;27.30;58.70
63371;DHT22;49504;48.336;14.472;2023-07-13T10:46:02;27.30;58.70
63371;DHT22;49504;48.336;14.472;2023-07-13T10:49:27;27.30;58.70
63371;DHT22;49504;48.336;14.472;2023-07-13T10:52:51;27.30;58.80
63371;DHT22;49504;48.336;14.472;2023-07-13T10:56:23;27.30;58.70
63371;DHT22;49504;48.336;14.472;2023-07-13T10:59:49;27.30;58.70
63371;DHT22;49504;48.336;14.472;2023-07-13T11:03:31;27.40;58.80
63371;DHT22;49504;48.336;14.472;2023-07-13T11:06:57;27.40;58.70
63371;DHT22;49504;48.336;14.472;2023-07-13T11:14:29;27.40;58.70
63371;DHT22;49504;48.336;14.472;2023-07-13T11:17:54;27.30;58.60
63371;DHT22;49504;48.336;14.472;2023-07-13T11:21:17;27.30;58.70
63371;DHT22;49504;48.336;14.472;2023-07-13T11:24:59;27.30;58.60
63371;DHT22;49504;48.336;14.472;2023-07-13T11:28:24;27.40;58.60
63371;DHT22;49504;48.336;14.472;2023-07-13T11:31:55;27.30;58.50
63371;DHT22;49504;48.336;14.472;2023-07-13T11:35:26;27.30;58.50
63371;DHT22;49504;48.336;14.472;2023-07-13T11:38:56;27.30;58.50
63371;DHT22;49504;48.336;14.472;2023-07-13T11:42:24;27.30;58.40
63371;DHT22;49504;48.336;14.472;2023-07-13T11:45:45;27.30;58.40
63371;DHT22;49504;48.336;14.472;2023-07-13T11:49:06;27.30;58.40
63371;DHT22;49504;48.336;14.472;2023-07-13T11:52:32;27.30;58.30
63371;DHT22;49504;48.336;14.472;2023-07-13T11:55:57;27.30;58.20
63371;DHT22;49504;48.336;14.472;2023-07-13T11:59:19;27.30;58.10
63371;DHT22;49504;48.336;14.472;2023-07-13T12:02:43;27.30;58.10
63371;DHT22;49504;48.336;14.472;2023-07-13T12:06:26;27.30;58.10
63371;DHT22;49504;48.336;14.472;2023-07-13T12:09:48;27.30;58.10
63371;DHT22;49504;48.336;14.472;2023-07-13T12:13:09;27.30;58.10
63371;DHT22;49504;48.336;14.472;2023-07-13T12:16:32;27.30;58.10
63371;DHT22;49504;48.336;14.472;2023-07-13T12:19:54;27.40;58.20
63371;DHT22;49504;48.336;14.472;2023-07-13T12:23:22;27.30;58.10
63371;DHT22;49504;48.336;14.472;2023-07-13T12:26:52;27.30;57.90
63371;DHT22;49504;48.336;14.472;2023-07-13T12:30:28;27.30;57.90
63371;DHT22;49504;48.336;14.472;2023-07-13T12:34:01;27.40;58.00
63371;DHT22;49504;48.336;14.472;2023-07-13T12:37:24;27.40;58.00
63371;DHT22;49504;48.336;14.472;2023-07-13T12:40:49;27.40;58.00
63371;DHT22;49504;48.336;14.472;2023-07-13T12:44:13;27.40;57.90
63371;DHT22;49504;48.336;14.472;2023-07-13T12:47:40;27.40;58.00
63371;DHT22;49504;48.336;14.472;2023-07-13T12:51:04;27.40;58.00
63371;DHT22;49504;48.336;14.472;2023-07-13T12:54:25;27.40;58.00
63371;DHT22;49504;48.336;14.472;2023-07-13T12:57:50;27.40;58.00
63371;DHT22;49504;48.336;14.472;2023-07-13T13:01:13;27.40;58.00
63371;DHT22;49504;48.336;14.472;2023-07-13T13:04:39;27.40;58.00
63371;DHT22;49504;48.336;14.472;2023-07-13T13:08:02;27.40;58.00
63371;DHT22;49504;48.336;14.472;2023-07-13T13:11:24;27.40;57.90
63371;DHT22;49504;48.336;14.472;2023-07-13T13:14:46;27.40;57.90
63371;DHT22;49504;48.336;14.472;2023-07-13T13:18:15;27.40;57.90
63371;DHT22;49504;48.336;14.472;2023-07-13T13:21:37;27.40;57.90
63371;DHT22;49504;48.336;14.472;2023-07-13T13:24:59;27.40;57.80
63371;DHT22;49504;48.336;14.472;2023-07-13T13:28:21;27.40;57.80
63371;DHT22;49504;48.336;14.472;2023-07-13T13:31:43;27.40;57.90
63371;DHT22;49504;48.336;14.472;2023-07-13T13:35:05;27.40;57.80
63371;DHT22;49504;48.336;14.472;2023-07-13T13:38:28;27.40;57.20
63371;DHT22;49504;48.336;14.472;2023-07-13T13:41:53;27.40;57.80
63371;DHT22;49504;48.336;14.472;2023-07-13T13:45:15;27.40;58.50
63371;DHT22;49504;48.336;14.472;2023-07-13T13:48:37;27.40;57.90
63371;DHT22;49504;48.336;14.472;2023-07-13T13:51:59;27.40;57.80
63371;DHT22;49504;48.336;14.472;2023-07-13T13:55:21;27.40;57.80
63371;DHT22;49504;48.336;14.472;2023-07-13T13:58:44;27.40;57.80
63371;DHT22;49504;48.336;14.472;2023-07-13T14:02:19;27.50;57.90
63371;DHT22;49504;48.336;14.472;2023-07-13T14:05:43;27.50;57.90
63371;DHT22;49504;48.336;14.472;2023-07-13T14:09:07;27.50;57.70
63371;DHT22;49504;48.336;14.472;2023-07-13T14:12:29;27.60;57.60
63371;DHT22;49504;48.336;14.472;2023-07-13T14:15:53;27.60;57.60
63371;DHT22;49504;48.336;14.472;2023-07-13T14:19:14;27.60;57.60
63371;DHT22;49504;48.336;14.472;2023-07-13T14:22:35;27.70;57.80
63371;DHT22;49504;48.336;14.472;2023-07-13T14:25:56;27.70;57.90
63371;DHT22;49504;48.336;14.472;2023-07-13T14:29:19;27.70;57.90
63371;DHT22;49504;48.336;14.472;2023-07-13T14:32:42;27.70;57.80
63371;DHT22;49504;48.336;14.472;2023-07-13T14:36:09;27.70;57.80
63371;DHT22;49504;48.336;14.472;2023-07-13T14:39:54;27.70;57.80
63371;DHT22;49504;48.336;14.472;2023-07-13T14:43:16;27.70;57.80
63371;DHT22;49504;48.336;14.472;2023-07-13T14:46:38;27.70;57.70
63371;DHT22;49504;48.336;14.472;2023-07-13T14:50:00;27.70;57.70
63371;DHT22;49504;48.336;14.472;2023-07-13T14:53:22;27.70;57.70
63371;DHT22;49504;48.336;14.472;2023-07-13T14:56:44;27.70;57.70
63371;DHT22;49504;48.336;14.472;2023-07-13T15:00:13;27.70;58.50
63371;DHT22;49504;48.336;14.472;2023-07-13T15:03:34;27.70;57.80
63371;DHT22;49504;48.336;14.472;2023-07-13T15:06:59;27.80;57.90
63371;DHT22;49504;48.336;14.472;2023-07-13T15:10:23;27.70;57.90
63371;DHT22;49504;48.336;14.472;2023-07-13T15:13:45;27.80;57.90
63371;DHT22;49504;48.336;14.472;2023-07-13T15:17:22;27.80;58.00
63371;DHT22;49504;48.336;14.472;2023-07-13T15:20:47;27.70;58.00
63371;DHT22;49504;48.336;14.472;2023-07-13T15:24:10;27.80;58.00
63371;DHT22;49504;48.336;14.472;2023-07-13T15:27:31;27.70;58.00
63371;DHT22;49504;48.336;14.472;2023-07-13T15:30:52;27.80;58.10
63371;DHT22;49504;48.336;14.472;2023-07-13T15:34:16;27.80;58.00
63371;DHT22;49504;48.336;14.472;2023-07-13T15:37:40;27.80;58.10
63371;DHT22;49504;48.336;14.472;2023-07-13T15:41:13;27.80;58.20
63371;DHT22;49504;48.336;14.472;2023-07-13T15:44:48;27.80;57.60
63371;DHT22;49504;48.336;14.472;2023-07-13T15:48:13;27.80;58.30
63371;DHT22;49504;48.336;14.472;2023-07-13T15:51:36;27.80;58.10
63371;DHT22;49504;48.336;14.472;2023-07-13T15:54:59;27.80;58.20
63371;DHT22;49504;48.336;14.472;2023-07-13T15:58:21;27.80;58.20
63371;DHT22;49504;48.336;14.472;2023-07-13T16:01:43;27.80;58.10
63371;DHT22;49504;48.336;14.472;2023-07-13T16:05:05;27.80;58.20
63371;DHT22;49504;48.336;14.472;2023-07-13T16:10:44;27.80;57.60
63371;DHT22;49504;48.336;14.472;2023-07-13T16:14:05;27.80;58.00
63371;DHT22;49504;48.336;14.472;2023-07-13T16:18:44;27.80;57.50
63371;DHT22;49504;48.336;14.472;2023-07-13T16:22:08;27.80;58.00
63371;DHT22;49504;48.336;14.472;2023-07-13T16:25:34;27.80;58.00
63371;DHT22;49504;48.336;14.472;2023-07-13T16:28:55;27.80;58.00
63371;DHT22;49504;48.336;14.472;2023-07-13T16:32:16;27.80;57.90
63371;DHT22;49504;48.336;14.472;2023-07-13T16:35:40;27.80;58.00
63371;DHT22;49504;48.336;14.472;2023-07-13T16:39:04;27.80;57.90
63371;DHT22;49504;48.336;14.472;2023-07-13T16:42:30;27.80;57.90
63371;DHT22;49504;48.336;14.472;2023-07-13T16:45:53;27.80;57.80
63371;DHT22;49504;48.336;14.472;2023-07-13T16:49:23;27.80;57.90
63371;DHT22;49504;48.336;14.472;2023-07-13T16:52:48;27.80;57.90
63371;DHT22;49504;48.336;14.472;2023-07-13T16:56:14;27.80;57.90
63371;DHT22;49504;48.336;14.472;2023-07-13T16:59:36;27.80;57.80
63371;DHT22;49504;48.336;14.472;2023-07-13T17:03:00;27.80;57.80
63371;DHT22;49504;48.336;14.472;2023-07-13T17:06:24;27.80;57.70
63371;DHT22;49504;48.336;14.472;2023-07-13T17:09:46;27.80;57.70
63371;DHT22;49504;48.336;14.472;2023-07-13T17:13:09;27.80;57.70
63371;DHT22;49504;48.336;14.472;2023-07-13T17:16:31;27.80;57.70
63371;DHT22;49504;48.336;14.472;2023-07-13T17:19:52;27.80;57.60
63371;DHT22;49504;48.336;14.472;2023-07-13T17:23:15;27.80;57.60
63371;DHT22;49504;48.336;14.472;2023-07-13T17:26:38;27.80;57.60
63371;DHT22;49504;48.336;14.472;2023-07-13T17:29:59;27.80;57.60
63371;DHT22;49504;48.336;14.472;2023-07-13T17:33:28;27.80;57.50
63371;DHT22;49504;48.336;14.472;2023-07-13T17:36:50;27.80;57.60
63371;DHT22;49504;48.336;14.472;2023-07-13T17:40:14;27.80;57.50
63371;DHT22;49504;48.336;14.472;2023-07-13T17:43:37;27.80;57.40
63371;DHT22;49504;48.336;14.472;2023-07-13T17:46:58;27.80;57.40
63371;DHT22;49504;48.336;14.472;2023-07-13T17:50:26;27.80;57.40
63371;DHT22;49504;48.336;14.472;2023-07-13T17:53:48;27.80;57.30
63371;DHT22;49504;48.336;14.472;2023-07-13T17:57:09;27.80;57.40
63371;DHT22;49504;48.336;14.472;2023-07-13T18:00:37;27.80;57.30
63371;DHT22;49504;48.336;14.472;2023-07-13T18:04:00;27.80;57.20
63371;DHT22;49504;48.336;14.472;2023-07-13T18:07:21;27.80;57.20
63371;DHT22;49504;48.336;14.472;2023-07-13T18:10:42;27.80;57.20
63371;DHT22;49504;48.336;14.472;2023-07-13T18:14:04;27.80;57.10
63371;DHT22;49504;48.336;14.472;2023-07-13T18:17:26;27.70;57.00
63371;DHT22;49504;48.336;14.472;2023-07-13T18:20:49;27.70;57.20
63371;DHT22;49504;48.336;14.472;2023-07-13T18:24:10;27.70;57.40
63371;DHT22;49504;48.336;14.472;2023-07-13T18:27:31;27.70;57.40
63371;DHT22;49504;48.336;14.472;2023-07-13T18:30:55;27.80;57.50
63371;DHT22;49504;48.336;14.472;2023-07-13T18:35:03;27.80;56.90
63371;DHT22;49504;48.336;14.472;2023-07-13T18:38:28;27.70;57.30
63371;DHT22;49504;48.336;14.472;2023-07-13T18:41:51;27.70;57.20
63371;DHT22;49504;48.336;14.472;2023-07-13T18:45:12;27.70;57.30
63371;DHT22;49504;48.336;14.472;2023-07-13T18:48:34;27.70;57.30
63371;DHT22;49504;48.336;14.472;2023-07-13T18:51:57;27.70;57.30
63371;DHT22;49504;48.336;14.472;2023-07-13T18:55:19;27.80;57.40
63371;DHT22;49504;48.336;14.472;2023-07-13T18:58:42;27.80;57.30
63371;DHT22;49504;48.336;14.472;2023-07-13T19:02:08;27.80;57.30
63371;DHT22;49504;48.336;14.472;2023-07-13T19:05:33;27.80;57.40
63371;DHT22;49504;48.336;14.472;2023-07-13T19:08:56;27.70;57.30
63371;DHT22;49504;48.336;14.472;2023-07-13T19:12:18;27.80;57.40
63371;DHT22;49504;48.336;14.472;2023-07-13T19:15:41;27.80;57.40
63371;DHT22;49504;48.336;14.472;2023-07-13T19:19:07;27.80;57.50
63371;DHT22;49504;48.336;14.472;2023-07-13T19:23:02;27.70;56.90
63371;DHT22;49504;48.336;14.472;2023-07-13T19:26:28;27.80;57.50
63371;DHT22;49504;48.336;14.472;2023-07-13T19:29:51;27.70;57.40
63371;DHT22;49504;48.336;14.472;2023-07-13T19:33:15;27.80;57.50
63371;DHT22;49504;48.336;14.472;2023-07-13T19:36:37;27.80;57.50
63371;DHT22;49504;48.336;14.472;2023-07-13T19:40:00;27.80;57.40
63371;DHT22;49504;48.336;14.472;2023-07-13T19:43:22;27.70;57.20
63371;DHT22;49504;48.336;14.472;2023-07-13T19:46:43;27.70;57.20
63371;DHT22;49504;48.336;14.472;2023-07-13T19:50:05;27.70;57.40
63371;DHT22;49504;48.336;14.472;2023-07-13T19:53:27;27.70;57.40
63371;DHT22;49504;48.336;14.472;2023-07-13T19:56:49;27.70;57.50
63371;DHT22;49504;48.336;14.472;2023-07-13T20:00:15;27.70;57.50
63371;DHT22;49504;48.336;14.472;2023-07-13T20:03:38;27.70;57.60
63371;DHT22;49504;48.336;14.472;2023-07-13T20:07:00;27.70;57.60
63371;DHT22;49504;48.336;14.472;2023-07-13T20:10:23;27.70;57.60
63371;DHT22;49504;48.336;14.472;2023-07-13T20:13:47;27.70;57.70
63371;DHT22;49504;48.336;14.472;2023-07-13T20:17:27;27.70;57.60
63371;DHT22;49504;48.336;14.472;2023-07-13T20:20:50;27.70;57.40
63371;DHT22;49504;48.336;14.472;2023-07-13T20:24:13;27.70;57.40
63371;DHT22;49504;48.336;14.472;2023-07-13T20:27:36;27.70;57.40
63371;DHT22;49504;48.336;14.472;2023-07-13T20:30:59;27.70;57.50
63371;DHT22;49504;48.336;14.472;2023-07-13T20:34:22;27.70;57.40
63371;DHT22;49504;48.336;14.472;2023-07-13T20:37:46;27.70;57.40
63371;DHT22;49504;48.336;14.472;2023-07-13T20:41:10;27.70;57.30
63371;DHT22;49504;48.336;14.472;2023-07-13T20:44:31;27.70;57.30
63371;DHT22;49504;48.336;14.472;2023-07-13T20:47:56;27.70;57.30
63371;DHT22;49504;48.336;14.472;2023-07-13T20:53:18;27.70;56.80
63371;DHT22;49504;48.336;14.472;2023-07-13T20:58:57;27.70;56.80
63371;DHT22;49504;48.336;14.472;2023-07-13T21:02:29;27.70;57.10
63371;DHT22;49504;48.336;14.472;2023-07-13T21:05:53;27.70;57.20
63371;DHT22;49504;48.336;14.472;2023-07-13T21:09:17;27.70;57.00
63371;DHT22;49504;48.336;14.472;2023-07-13T21:12:39;27.70;57.00
63371;DHT22;49504;48.336;14.472;2023-07-13T21:16:13;27.70;57.00
63371;DHT22;49504;48.336;14.472;2023-07-13T21:19:36;27.60;56.90
63371;DHT22;49504;48.336;14.472;2023-07-13T21:24:37;27.70;56.50
63371;DHT22;49504;48.336;14.472;2023-07-13T21:27:59;27.70;56.90
63371;DHT22;49504;48.336;14.472;2023-07-13T21:31:23;27.70;56.90
63371;DHT22;49504;48.336;14.472;2023-07-13T21:34:45;27.70;56.90
63371;DHT22;49504;48.336;14.472;2023-07-13T21:38:14;27.70;57.00